sensor_id;sensor_type;location;lat;lon;timestamp;pressure;altitude;pressure_sealevel;temperature;humidity
19624;BME280;9959;49.798;9.928;2023-01-31T00:01:40;100343.09;;;2.85;85.75
19624;BME280;9959;49.798;9.928;2023-01-31T00:04:10;100337.78;;;2.85;85.70
19624;BME280;9959;49.798;9.928;2023-01-31T00:06:41;100344.78;;;2.86;86.06
19624;BME280;9959;49.798;9.928;2023-01-31T00:09:11;100324.06;;;2.80;86.55
19624;BME280;9959;49.798;9.928;2023-01-31T00:11:41;100314.56;;;2.78;86.59
19624;BME280;9959;49.798;9.928;2023-01-31T00:14:16;100339.34;;;2.78;86.92
19624;BME280;9959;49.798;9.928;2023-01-31T00:16:43;100336.44;;;2.71;87.63
19624;BME280;9959;49.798;9.928;2023-01-31T00:19:10;100331.94;;;2.72;87.61
19624;BME280;9959;49.798;9.928;2023-01-31T00:21:37;100343.66;;;2.79;87.46
19624;BME280;9959;49.798;9.928;2023-01-31T00:24:02;100331.25;;;2.70;87.65
19624;BME280;9959;49.798;9.928;2023-01-31T00:26:32;100337.84;;;2.66;87.68
19624;BME280;9959;49.798;9.928;2023-01-31T00:29:04;100340.59;;;2.74;87.66
19624;BME280;9959;49.798;9.928;2023-01-31T00:31:32;100345.13;;;2.64;88.10
19624;BME280;9959;49.798;9.928;2023-01-31T00:34:00;100343.44;;;2.63;88.47
19624;BME280;9959;49.798;9.928;2023-01-31T00:36:31;100346.81;;;2.65;88.19
19624;BME280;9959;49.798;9.928;2023-01-31T00:38:59;100351.84;;;2.58;88.69
19624;BME280;9959;49.798;9.928;2023-01-31T00:41:28;100357.72;;;2.62;88.60
19624;BME280;9959;49.798;9.928;2023-01-31T00:43:56;100347.66;;;2.56;88.81
19624;BME280;9959;49.798;9.928;2023-01-31T00:46:23;100351.84;;;2.49;89.23
19624;BME280;9959;49.798;9.928;2023-01-31T00:48:50;100351.84;;;2.49;89.10
19624;BME280;9959;49.798;9.928;2023-01-31T00:51:18;100366.72;;;2.42;89.52
19624;BME280;9959;49.798;9.928;2023-01-31T00:53:46;100379.44;;;2.48;89.38
19624;BME280;9959;49.798;9.928;2023-01-31T00:56:18;100362.47;;;2.68;87.96
19624;BME280;9959;49.798;9.928;2023-01-31T00:58:45;100376.50;;;2.51;89.04
19624;BME280;9959;49.798;9.928;2023-01-31T01:01:18;100376.78;;;2.57;88.72
19624;BME280;9959;49.798;9.928;2023-01-31T01:03:47;100370.91;;;2.54;88.91
19624;BME280;9959;49.798;9.928;2023-01-31T01:06:15;100379.00;;;2.62;88.52
19624;BME280;9959;49.798;9.928;2023-01-31T01:08:45;100384.09;;;2.46;89.27
19624;BME280;9959;49.798;9.928;2023-01-31T01:11:25;100388.81;;;2.52;89.18
19624;BME280;9959;49.798;9.928;2023-01-31T01:13:56;100385.03;;;2.54;89.47
19624;BME280;9959;49.798;9.928;2023-01-31T01:16:26;100374.81;;;2.50;89.38
19624;BME280;9959;49.798;9.928;2023-01-31T01:18:53;100369.25;;;2.43;89.58
19624;BME280;9959;49.798;9.928;2023-01-31T01:21:25;100374.53;;;2.53;89.76
19624;BME280;9959;49.798;9.928;2023-01-31T01:23:54;100384.09;;;2.36;90.16
19624;BME280;9959;49.798;9.928;2023-01-31T01:26:23;100376.94;;;2.27;90.79
19624;BME280;9959;49.798;9.928;2023-01-31T01:28:54;100369.53;;;2.40;89.92
19624;BME280;9959;49.798;9.928;2023-01-31T01:31:22;100377.94;;;2.35;90.17
19624;BME280;9959;49.798;9.928;2023-01-31T01:33:58;100376.78;;;2.48;89.62
19624;BME280;9959;49.798;9.928;2023-01-31T01:36:26;100360.81;;;2.48;89.34
19624;BME280;9959;49.798;9.928;2023-01-31T01:38:53;100357.63;;;2.34;89.95
19624;BME280;9959;49.798;9.928;2023-01-31T01:41:24;100366.16;;;2.38;89.96
19624;BME280;9959;49.798;9.928;2023-01-31T01:43:57;100370.09;;;2.44;89.37
19624;BME280;9959;49.798;9.928;2023-01-31T01:46:38;100377.47;;;2.50;88.99
19624;BME280;9959;49.798;9.928;2023-01-31T01:49:24;100384.78;;;2.28;90.07
19624;BME280;9959;49.798;9.928;2023-01-31T01:51:56;100391.75;;;2.20;90.55
19624;BME280;9959;49.798;9.928;2023-01-31T01:54:35;100397.50;;;2.25;90.33
19624;BME280;9959;49.798;9.928;2023-01-31T01:57:06;100398.63;;;2.22;90.69
19624;BME280;9959;49.798;9.928;2023-01-31T02:02:05;100411.78;;;2.14;91.15
19624;BME280;9959;49.798;9.928;2023-01-31T02:04:37;100403.66;;;2.06;91.58
19624;BME280;9959;49.798;9.928;2023-01-31T02:07:09;100408.00;;;2.07;91.92
19624;BME280;9959;49.798;9.928;2023-01-31T02:12:07;100433.06;;;2.14;91.38
19624;BME280;9959;49.798;9.928;2023-01-31T02:14:38;100429.41;;;2.15;91.45
19624;BME280;9959;49.798;9.928;2023-01-31T02:17:11;100428.13;;;2.19;91.04
19624;BME280;9959;49.798;9.928;2023-01-31T02:35:34;100412.88;;;2.50;89.70
19624;BME280;9959;49.798;9.928;2023-01-31T02:44:11;100421.56;;;2.62;88.89
19624;BME280;9959;49.798;9.928;2023-01-31T02:47:17;100434.16;;;2.60;88.90
19624;BME280;9959;49.798;9.928;2023-01-31T02:50:11;100436.53;;;2.53;89.50
19624;BME280;9959;49.798;9.928;2023-01-31T02:52:50;100431.97;;;2.46;89.87
19624;BME280;9959;49.798;9.928;2023-01-31T02:55:29;100438.66;;;2.40;90.58
19624;BME280;9959;49.798;9.928;2023-01-31T02:58:06;100436.25;;;2.47;90.07
19624;BME280;9959;49.798;9.928;2023-01-31T03:00:36;100434.75;;;2.34;90.59
19624;BME280;9959;49.798;9.928;2023-01-31T03:03:19;100440.91;;;2.45;90.32
19624;BME280;9959;49.798;9.928;2023-01-31T03:09:15;100440.06;;;2.34;91.03
19624;BME280;9959;49.798;9.928;2023-01-31T03:12:04;100437.81;;;2.40;90.78
19624;BME280;9959;49.798;9.928;2023-01-31T03:17:12;100447.19;;;2.24;92.30
19624;BME280;9959;49.798;9.928;2023-01-31T03:20:16;100453.91;;;2.28;91.97
19624;BME280;9959;49.798;9.928;2023-01-31T03:25:17;100453.50;;;2.43;91.24
19624;BME280;9959;49.798;9.928;2023-01-31T03:27:53;100442.31;;;2.39;91.42
19624;BME280;9959;49.798;9.928;2023-01-31T03:30:36;100445.50;;;2.23;92.13
19624;BME280;9959;49.798;9.928;2023-01-31T03:33:16;100455.44;;;2.31;92.22
19624;BME280;9959;49.798;9.928;2023-01-31T03:35:51;100458.41;;;2.37;91.67
19624;BME280;9959;49.798;9.928;2023-01-31T03:38:28;100443.72;;;2.43;90.81
19624;BME280;9959;49.798;9.928;2023-01-31T03:41:04;100454.75;;;2.38;91.16
19624;BME280;9959;49.798;9.928;2023-01-31T03:46:25;100458.53;;;2.46;90.56
19624;BME280;9959;49.798;9.928;2023-01-31T03:48:56;100466.53;;;2.46;90.50
19624;BME280;9959;49.798;9.928;2023-01-31T03:51:30;100477.84;;;2.48;90.23
19624;BME280;9959;49.798;9.928;2023-01-31T03:54:08;100485.97;;;2.56;90.26
19624;BME280;9959;49.798;9.928;2023-01-31T03:56:43;100493.38;;;2.62;89.78
19624;BME280;9959;49.798;9.928;2023-01-31T03:59:15;100490.19;;;2.68;89.27
19624;BME280;9959;49.798;9.928;2023-01-31T04:01:46;100508.78;;;2.68;89.72
19624;BME280;9959;49.798;9.928;2023-01-31T04:04:24;100505.97;;;2.79;88.82
19624;BME280;9959;49.798;9.928;2023-01-31T04:06:55;100499.56;;;2.72;89.07
19624;BME280;9959;49.798;9.928;2023-01-31T04:09:23;100504.88;;;2.72;89.37
19624;BME280;9959;49.798;9.928;2023-01-31T04:11:50;100508.66;;;2.69;89.23
19624;BME280;9959;49.798;9.928;2023-01-31T04:14:18;100507.22;;;2.75;88.64
19624;BME280;9959;49.798;9.928;2023-01-31T04:16:55;100503.59;;;2.76;88.80
19624;BME280;9959;49.798;9.928;2023-01-31T04:19:22;100502.88;;;2.74;88.80
19624;BME280;9959;49.798;9.928;2023-01-31T04:21:49;100490.44;;;2.75;88.72
19624;BME280;9959;49.798;9.928;2023-01-31T04:24:16;100488.91;;;2.72;88.48
19624;BME280;9959;49.798;9.928;2023-01-31T04:26:46;100482.31;;;2.76;88.24
19624;BME280;9959;49.798;9.928;2023-01-31T04:29:13;100487.94;;;2.63;89.18
19624;BME280;9959;49.798;9.928;2023-01-31T04:31:40;100485.94;;;2.75;88.60
19624;BME280;9959;49.798;9.928;2023-01-31T04:34:09;100484.84;;;2.68;88.72
19624;BME280;9959;49.798;9.928;2023-01-31T04:36:36;100481.50;;;2.66;88.68
19624;BME280;9959;49.798;9.928;2023-01-31T04:39:03;100482.03;;;2.60;89.01
19624;BME280;9959;49.798;9.928;2023-01-31T04:41:29;100483.31;;;2.65;88.50
19624;BME280;9959;49.798;9.928;2023-01-31T04:43:57;100478.13;;;2.64;88.91
19624;BME280;9959;49.798;9.928;2023-01-31T04:46:24;100490.16;;;2.78;87.99
19624;BME280;9959;49.798;9.928;2023-01-31T04:48:54;100477.00;;;2.66;88.77
19624;BME280;9959;49.798;9.928;2023-01-31T04:51:24;100476.16;;;2.47;89.37
19624;BME280;9959;49.798;9.928;2023-01-31T04:53:50;100483.16;;;2.48;89.50
19624;BME280;9959;49.798;9.928;2023-01-31T04:56:18;100480.34;;;2.30;90.36
19624;BME280;9959;49.798;9.928;2023-01-31T04:58:45;100480.75;;;2.25;90.80
19624;BME280;9959;49.798;9.928;2023-01-31T05:01:13;100474.19;;;2.10;91.86
19624;BME280;9959;49.798;9.928;2023-01-31T05:03:40;100463.97;;;2.15;91.00
19624;BME280;9959;49.798;9.928;2023-01-31T05:06:07;100468.16;;;2.08;91.58
19624;BME280;9959;49.798;9.928;2023-01-31T05:08:34;100464.38;;;2.11;91.34
19624;BME280;9959;49.798;9.928;2023-01-31T05:11:03;100463.53;;;2.10;91.39
19624;BME280;9959;49.798;9.928;2023-01-31T05:13:32;100462.97;;;2.07;91.39
19624;BME280;9959;49.798;9.928;2023-01-31T05:15:59;100453.72;;;2.01;91.43
19624;BME280;9959;49.798;9.928;2023-01-31T05:18:26;100461.25;;;1.96;92.19
19624;BME280;9959;49.798;9.928;2023-01-31T05:20:52;100463.53;;;1.91;92.29
19624;BME280;9959;49.798;9.928;2023-01-31T05:23:19;100462.41;;;2.03;91.57
19624;BME280;9959;49.798;9.928;2023-01-31T05:25:48;100471.75;;;1.88;92.59
19624;BME280;9959;49.798;9.928;2023-01-31T05:28:16;100471.06;;;1.86;92.45
19624;BME280;9959;49.798;9.928;2023-01-31T05:30:42;100468.53;;;1.84;92.25
19624;BME280;9959;49.798;9.928;2023-01-31T05:33:09;100464.59;;;1.79;92.52
19624;BME280;9959;49.798;9.928;2023-01-31T05:35:37;100463.47;;;1.81;92.82
19624;BME280;9959;49.798;9.928;2023-01-31T05:38:08;100471.06;;;1.86;92.07
19624;BME280;9959;49.798;9.928;2023-01-31T05:40:35;100487.25;;;1.92;91.96
19624;BME280;9959;49.798;9.928;2023-01-31T05:43:11;100477.22;;;1.96;91.33
19624;BME280;9959;49.798;9.928;2023-01-31T05:45:38;100478.88;;;1.97;91.41
19624;BME280;9959;49.798;9.928;2023-01-31T05:48:08;100482.97;;;1.91;90.94
19624;BME280;9959;49.798;9.928;2023-01-31T05:50:35;100484.06;;;1.89;91.08
19624;BME280;9959;49.798;9.928;2023-01-31T05:53:04;100480.69;;;1.96;90.91
19624;BME280;9959;49.798;9.928;2023-01-31T05:55:31;100471.34;;;2.02;90.17
19624;BME280;9959;49.798;9.928;2023-01-31T05:57:58;100474.16;;;2.00;90.34
19624;BME280;9959;49.798;9.928;2023-01-31T06:00:26;100480.03;;;2.04;90.31
19624;BME280;9959;49.798;9.928;2023-01-31T06:02:57;100473.59;;;2.07;89.52
19624;BME280;9959;49.798;9.928;2023-01-31T06:05:34;100475.28;;;2.08;89.85
19624;BME280;9959;49.798;9.928;2023-01-31T06:08:01;100480.91;;;2.14;89.27
19624;BME280;9959;49.798;9.928;2023-01-31T06:10:29;100485.09;;;2.17;89.04
19624;BME280;9959;49.798;9.928;2023-01-31T06:12:56;100481.44;;;2.08;89.71
19624;BME280;9959;49.798;9.928;2023-01-31T06:15:25;100492.91;;;2.09;89.87
19624;BME280;9959;49.798;9.928;2023-01-31T06:17:52;100475.44;;;2.25;88.95
19624;BME280;9959;49.798;9.928;2023-01-31T06:20:22;100479.22;;;2.13;89.22
19624;BME280;9959;49.798;9.928;2023-01-31T06:22:52;100475.31;;;2.17;88.98
19624;BME280;9959;49.798;9.928;2023-01-31T06:25:19;100475.16;;;2.09;89.47
19624;BME280;9959;49.798;9.928;2023-01-31T06:27:46;100476.44;;;2.15;89.42
19624;BME280;9959;49.798;9.928;2023-01-31T06:30:19;100471.38;;;2.21;88.25
19624;BME280;9959;49.798;9.928;2023-01-31T06:32:46;100463.97;;;2.15;88.19
19624;BME280;9959;49.798;9.928;2023-01-31T06:35:13;100466.06;;;2.21;87.89
19624;BME280;9959;49.798;9.928;2023-01-31T06:37:39;100466.06;;;2.21;87.80
19624;BME280;9959;49.798;9.928;2023-01-31T06:40:06;100465.78;;;2.15;87.97
19624;BME280;9959;49.798;9.928;2023-01-31T06:42:37;100461.59;;;2.12;87.47
19624;BME280;9959;49.798;9.928;2023-01-31T06:45:03;100458.22;;;2.10;88.20
19624;BME280;9959;49.798;9.928;2023-01-31T06:47:30;100467.75;;;2.13;88.01
19624;BME280;9959;49.798;9.928;2023-01-31T06:49:58;100463.28;;;2.13;87.22
19624;BME280;9959;49.798;9.928;2023-01-31T06:52:25;100461.25;;;1.96;88.27
19624;BME280;9959;49.798;9.928;2023-01-31T06:54:52;100466.84;;;1.93;88.89
19624;BME280;9959;49.798;9.928;2023-01-31T06:57:19;100463.78;;;1.88;89.33
19624;BME280;9959;49.798;9.928;2023-01-31T06:59:46;100481.94;;;1.83;89.55
19624;BME280;9959;49.798;9.928;2023-01-31T07:02:13;100478.63;;;1.90;89.75
19624;BME280;9959;49.798;9.928;2023-01-31T07:04:39;100484.34;;;1.86;90.04
19624;BME280;9959;49.798;9.928;2023-01-31T07:07:06;100481.78;;;1.75;90.65
19624;BME280;9959;49.798;9.928;2023-01-31T07:09:33;100488.84;;;1.64;90.33
19624;BME280;9959;49.798;9.928;2023-01-31T07:12:01;100493.03;;;1.57;90.66
19624;BME280;9959;49.798;9.928;2023-01-31T07:14:28;100489.34;;;1.49;90.93
19624;BME280;9959;49.798;9.928;2023-01-31T07:16:56;100486.50;;;1.41;91.63
19624;BME280;9959;49.798;9.928;2023-01-31T07:19:22;100501.09;;;1.46;90.90
19624;BME280;9959;49.798;9.928;2023-01-31T07:21:49;100509.41;;;1.32;91.79
19624;BME280;9959;49.798;9.928;2023-01-31T07:24:16;100509.38;;;1.53;89.73
19624;BME280;9959;49.798;9.928;2023-01-31T07:26:46;100507.50;;;1.44;90.43
19624;BME280;9959;49.798;9.928;2023-01-31T07:29:13;100504.69;;;1.35;90.63
19624;BME280;9959;49.798;9.928;2023-01-31T07:31:39;100507.66;;;1.21;91.53
19624;BME280;9959;49.798;9.928;2023-01-31T07:34:06;100511.94;;;1.13;92.44
19624;BME280;9959;49.798;9.928;2023-01-31T07:36:33;100517.22;;;1.13;92.23
19624;BME280;9959;49.798;9.928;2023-01-31T07:38:59;100507.06;;;1.18;91.64
19624;BME280;9959;49.798;9.928;2023-01-31T07:41:27;100510.50;;;1.29;91.17
19624;BME280;9959;49.798;9.928;2023-01-31T07:43:54;100519.13;;;1.22;91.49
19624;BME280;9959;49.798;9.928;2023-01-31T07:46:20;100531.09;;;1.16;91.69
19624;BME280;9959;49.798;9.928;2023-01-31T07:48:47;100527.34;;;1.19;91.49
19624;BME280;9959;49.798;9.928;2023-01-31T07:51:15;100535.50;;;1.27;91.21
19624;BME280;9959;49.798;9.928;2023-01-31T07:53:41;100549.94;;;1.34;91.13
19624;BME280;9959;49.798;9.928;2023-01-31T07:56:15;100549.00;;;1.45;90.54
19624;BME280;9959;49.798;9.928;2023-01-31T07:58:43;100552.16;;;1.59;89.92
19624;BME280;9959;49.798;9.928;2023-01-31T08:01:20;100559.88;;;1.62;88.65
19624;BME280;9959;49.798;9.928;2023-01-31T08:04:04;100555.56;;;1.71;88.61
19624;BME280;9959;49.798;9.928;2023-01-31T08:06:46;100559.88;;;1.62;88.96
19624;BME280;9959;49.798;9.928;2023-01-31T08:09:14;100552.59;;;1.64;88.53
19624;BME280;9959;49.798;9.928;2023-01-31T08:11:42;100556.16;;;1.75;88.16
19624;BME280;9959;49.798;9.928;2023-01-31T08:14:09;100549.06;;;1.85;88.01
19624;BME280;9959;49.798;9.928;2023-01-31T08:16:36;100547.38;;;1.84;88.06
19624;BME280;9959;49.798;9.928;2023-01-31T08:19:03;100546.44;;;1.94;87.59
19624;BME280;9959;49.798;9.928;2023-01-31T08:21:30;100537.34;;;1.97;87.81
19624;BME280;9959;49.798;9.928;2023-01-31T08:23:57;100533.91;;;2.06;86.97
19624;BME280;9959;49.798;9.928;2023-01-31T08:26:23;100525.66;;;2.09;87.02
19624;BME280;9959;49.798;9.928;2023-01-31T08:28:51;100521.03;;;2.21;86.56
19624;BME280;9959;49.798;9.928;2023-01-31T08:31:22;100523.19;;;2.36;85.39
19624;BME280;9959;49.798;9.928;2023-01-31T08:33:50;100524.56;;;2.31;86.17
19624;BME280;9959;49.798;9.928;2023-01-31T08:36:26;100507.22;;;2.36;85.55
19624;BME280;9959;49.798;9.928;2023-01-31T08:38:54;100507.81;;;2.40;85.21
19624;BME280;9959;49.798;9.928;2023-01-31T08:41:23;100505.41;;;2.47;84.66
19624;BME280;9959;49.798;9.928;2023-01-31T08:43:51;100503.63;;;2.66;83.29
19624;BME280;9959;49.798;9.928;2023-01-31T08:46:24;100505.97;;;2.79;83.36
19624;BME280;9959;49.798;9.928;2023-01-31T08:48:51;100501.91;;;2.85;81.97
19624;BME280;9959;49.798;9.928;2023-01-31T08:51:18;100500.25;;;2.93;82.08
19624;BME280;9959;49.798;9.928;2023-01-31T08:53:45;100502.34;;;2.70;82.29
19624;BME280;9959;49.798;9.928;2023-01-31T08:56:12;100499.56;;;2.62;82.54
19624;BME280;9959;49.798;9.928;2023-01-31T08:58:42;100492.41;;;2.63;82.70
19624;BME280;9959;49.798;9.928;2023-01-31T09:01:11;100501.91;;;2.75;81.99
19624;BME280;9959;49.798;9.928;2023-01-31T09:03:39;100505.03;;;2.70;82.74
19624;BME280;9959;49.798;9.928;2023-01-31T09:06:20;100513.13;;;2.69;83.08
19624;BME280;9959;49.798;9.928;2023-01-31T09:08:47;100510.88;;;2.74;82.33
19624;BME280;9959;49.798;9.928;2023-01-31T09:11:14;100510.59;;;2.77;82.70
19624;BME280;9959;49.798;9.928;2023-01-31T09:13:46;100514.22;;;2.76;82.86
19624;BME280;9959;49.798;9.928;2023-01-31T09:16:13;100518.59;;;2.67;82.94
19624;BME280;9959;49.798;9.928;2023-01-31T09:18:41;100511.03;;;2.82;82.71
19624;BME280;9959;49.798;9.928;2023-01-31T09:21:09;100502.78;;;2.66;83.31
19624;BME280;9959;49.798;9.928;2023-01-31T09:23:36;100497.31;;;2.67;83.74
19624;BME280;9959;49.798;9.928;2023-01-31T09:26:04;100490.44;;;2.65;83.79
19624;BME280;9959;49.798;9.928;2023-01-31T09:28:31;100493.81;;;2.57;84.09
19624;BME280;9959;49.798;9.928;2023-01-31T09:31:13;100491.28;;;2.75;83.43
19624;BME280;9959;49.798;9.928;2023-01-31T09:33:43;100500.66;;;2.79;82.70
19624;BME280;9959;49.798;9.928;2023-01-31T09:36:12;100506.56;;;2.73;83.03
19624;BME280;9959;49.798;9.928;2023-01-31T09:38:39;100510.59;;;2.87;82.55
19624;BME280;9959;49.798;9.928;2023-01-31T09:41:25;100511.16;;;2.90;82.34
19624;BME280;9959;49.798;9.928;2023-01-31T09:44:21;100499.13;;;2.86;81.93
19624;BME280;9959;49.798;9.928;2023-01-31T09:47:01;100494.63;;;2.96;81.54
19624;BME280;9959;49.798;9.928;2023-01-31T09:49:32;100478.38;;;2.99;81.63
19624;BME280;9959;49.798;9.928;2023-01-31T09:52:05;100477.50;;;3.09;81.32
19624;BME280;9959;49.798;9.928;2023-01-31T09:54:37;100484.78;;;3.06;81.29
19624;BME280;9959;49.798;9.928;2023-01-31T10:13:13;100485.06;;;3.23;80.59
19624;BME280;9959;49.798;9.928;2023-01-31T10:15:48;100481.56;;;3.13;81.13
19624;BME280;9959;49.798;9.928;2023-01-31T10:18:33;100489.69;;;3.01;81.43
19624;BME280;9959;49.798;9.928;2023-01-31T10:21:09;100480.06;;;3.00;81.28
19624;BME280;9959;49.798;9.928;2023-01-31T10:26:24;100488.78;;;3.39;80.19
19624;BME280;9959;49.798;9.928;2023-01-31T10:29:11;100477.75;;;3.89;77.21
19624;BME280;9959;49.798;9.928;2023-01-31T10:31:43;100467.25;;;3.88;76.90
19624;BME280;9959;49.798;9.928;2023-01-31T10:34:22;100458.25;;;4.52;75.24
19624;BME280;9959;49.798;9.928;2023-01-31T10:37:08;100450.34;;;4.60;73.19
19624;BME280;9959;49.798;9.928;2023-01-31T10:42:13;100450.09;;;4.53;74.65
19624;BME280;9959;49.798;9.928;2023-01-31T10:44:50;100452.63;;;4.55;74.27
19624;BME280;9959;49.798;9.928;2023-01-31T10:47:26;100454.47;;;4.36;75.04
19624;BME280;9959;49.798;9.928;2023-01-31T10:49:54;100446.81;;;4.06;76.09
19624;BME280;9959;49.798;9.928;2023-01-31T10:55:14;100441.78;;;4.03;76.25
19624;BME280;9959;49.798;9.928;2023-01-31T10:57:48;100440.94;;;4.02;76.91
19624;BME280;9959;49.798;9.928;2023-01-31T11:00:20;100427.72;;;3.83;77.22
19624;BME280;9959;49.798;9.928;2023-01-31T11:02:48;100425.28;;;3.90;77.36
19624;BME280;9959;49.798;9.928;2023-01-31T11:05:18;100433.69;;;3.95;76.75
19624;BME280;9959;49.798;9.928;2023-01-31T11:07:46;100421.28;;;4.03;76.17
19624;BME280;9959;49.798;9.928;2023-01-31T11:10:25;100399.19;;;3.93;76.10
19624;BME280;9959;49.798;9.928;2023-01-31T11:12:54;100402.53;;;3.95;76.00
19624;BME280;9959;49.798;9.928;2023-01-31T11:15:24;100391.56;;;3.98;75.89
19624;BME280;9959;49.798;9.928;2023-01-31T11:17:59;100392.34;;;4.08;75.94
19624;BME280;9959;49.798;9.928;2023-01-31T11:20:29;100378.69;;;3.94;76.39
19624;BME280;9959;49.798;9.928;2023-01-31T11:22:58;100374.03;;;3.96;76.47
19624;BME280;9959;49.798;9.928;2023-01-31T11:25:30;100363.53;;;3.94;76.45
19624;BME280;9959;49.798;9.928;2023-01-31T11:28:04;100359.97;;;4.03;76.41
19624;BME280;9959;49.798;9.928;2023-01-31T11:30:46;100363.47;;;4.04;76.20
19624;BME280;9959;49.798;9.928;2023-01-31T11:36:11;100353.03;;;3.93;76.84
19624;BME280;9959;49.798;9.928;2023-01-31T11:38:39;100352.84;;;4.12;76.43
19624;BME280;9959;49.798;9.928;2023-01-31T11:41:26;100356.59;;;3.84;77.58
19624;BME280;9959;49.798;9.928;2023-01-31T11:44:11;100364.59;;;3.84;77.59
19624;BME280;9959;49.798;9.928;2023-01-31T11:47:01;100363.81;;;3.73;78.07
19624;BME280;9959;49.798;9.928;2023-01-31T11:52:12;100352.09;;;3.84;78.00
19624;BME280;9959;49.798;9.928;2023-01-31T11:54:44;100348.59;;;3.84;77.78
19624;BME280;9959;49.798;9.928;2023-01-31T11:57:22;100356.91;;;3.81;78.07
19624;BME280;9959;49.798;9.928;2023-01-31T11:59:52;100357.97;;;3.88;77.98
19624;BME280;9959;49.798;9.928;2023-01-31T12:05:16;100347.41;;;3.78;77.85
19624;BME280;9959;49.798;9.928;2023-01-31T12:07:49;100349.91;;;3.80;78.02
19624;BME280;9959;49.798;9.928;2023-01-31T12:12:59;100346.56;;;3.78;77.96
19624;BME280;9959;49.798;9.928;2023-01-31T12:16:00;100332.53;;;3.76;78.63
19624;BME280;9959;49.798;9.928;2023-01-31T12:21:12;100339.31;;;3.88;78.18
19624;BME280;9959;49.798;9.928;2023-01-31T12:23:43;100337.88;;;3.76;78.38
19624;BME280;9959;49.798;9.928;2023-01-31T12:26:33;100327.91;;;3.78;78.48
19624;BME280;9959;49.798;9.928;2023-01-31T12:32:07;100318.22;;;3.77;78.22
19624;BME280;9959;49.798;9.928;2023-01-31T12:59:38;100251.56;;;3.94;77.81
19624;BME280;9959;49.798;9.928;2023-01-31T13:05:02;100243.34;;;4.05;77.39
19624;BME280;9959;49.798;9.928;2023-01-31T13:13:14;100210.53;;;4.05;77.35
19624;BME280;9959;49.798;9.928;2023-01-31T13:15:54;100207.03;;;4.13;76.88
19624;BME280;9959;49.798;9.928;2023-01-31T13:18:28;100221.50;;;4.28;76.67
19624;BME280;9959;49.798;9.928;2023-01-31T13:21:07;100204.22;;;4.14;76.75
19624;BME280;9959;49.798;9.928;2023-01-31T13:26:14;100190.00;;;4.31;76.30
19624;BME280;9959;49.798;9.928;2023-01-31T13:29:03;100176.53;;;4.33;76.34
19624;BME280;9959;49.798;9.928;2023-01-31T13:34:18;100191.44;;;4.52;75.40
19624;BME280;9959;49.798;9.928;2023-01-31T13:36:51;100198.25;;;4.46;75.45
19624;BME280;9959;49.798;9.928;2023-01-31T13:39:25;100194.06;;;4.43;75.85
19624;BME280;9959;49.798;9.928;2023-01-31T13:41:55;100189.72;;;4.42;76.03
19624;BME280;9959;49.798;9.928;2023-01-31T13:44:22;100196.41;;;4.47;76.02
19624;BME280;9959;49.798;9.928;2023-01-31T13:50:26;100170.72;;;4.46;76.06
19624;BME280;9959;49.798;9.928;2023-01-31T13:52:57;100170.88;;;4.44;75.86
19624;BME280;9959;49.798;9.928;2023-01-31T13:55:33;100166.72;;;4.41;76.22
19624;BME280;9959;49.798;9.928;2023-01-31T13:58:05;100166.44;;;4.53;75.83
19624;BME280;9959;49.798;9.928;2023-01-31T14:03:10;100167.06;;;4.47;76.13
19624;BME280;9959;49.798;9.928;2023-01-31T14:08:30;100155.56;;;4.46;76.31
19624;BME280;9959;49.798;9.928;2023-01-31T14:13:45;100169.38;;;4.41;76.25
19624;BME280;9959;49.798;9.928;2023-01-31T14:22:03;100175.03;;;4.38;76.73
19624;BME280;9959;49.798;9.928;2023-01-31T14:27:17;100147.25;;;4.15;77.61
19624;BME280;9959;49.798;9.928;2023-01-31T14:29:46;100160.63;;;4.23;77.47
19624;BME280;9959;49.798;9.928;2023-01-31T14:32:21;100157.28;;;4.21;77.93
19624;BME280;9959;49.798;9.928;2023-01-31T14:34:53;100158.22;;;4.12;78.55
19624;BME280;9959;49.798;9.928;2023-01-31T14:40:17;100164.53;;;4.11;78.83
19624;BME280;9959;49.798;9.928;2023-01-31T14:43:11;100164.72;;;4.10;79.10
19624;BME280;9959;49.798;9.928;2023-01-31T14:51:40;100165.13;;;3.97;79.65
19624;BME280;9959;49.798;9.928;2023-01-31T14:54:14;100168.47;;;3.99;80.70
19624;BME280;9959;49.798;9.928;2023-01-31T14:56:53;100163.16;;;3.99;80.60
19624;BME280;9959;49.798;9.928;2023-01-31T15:02:15;100159.44;;;3.92;81.00
19624;BME280;9959;49.798;9.928;2023-01-31T15:05:12;100154.78;;;3.94;81.79
19624;BME280;9959;49.798;9.928;2023-01-31T15:18:34;100156.69;;;3.84;83.65
19624;BME280;9959;49.798;9.928;2023-01-31T15:21:04;100166.19;;;3.78;83.86
19624;BME280;9959;49.798;9.928;2023-01-31T15:23:34;100163.41;;;3.88;83.89
19624;BME280;9959;49.798;9.928;2023-01-31T15:26:03;100163.06;;;3.83;83.95
19624;BME280;9959;49.798;9.928;2023-01-31T15:28:36;100163.38;;;3.80;83.61
19624;BME280;9959;49.798;9.928;2023-01-31T15:31:14;100148.69;;;3.84;83.92
19624;BME280;9959;49.798;9.928;2023-01-31T15:33:49;100153.72;;;3.87;83.72
19624;BME280;9959;49.798;9.928;2023-01-31T15:36:23;100145.03;;;3.85;84.33
19624;BME280;9959;49.798;9.928;2023-01-31T15:38:55;100144.22;;;3.84;85.09
19624;BME280;9959;49.798;9.928;2023-01-31T15:44:22;100158.72;;;3.82;84.96
19624;BME280;9959;49.798;9.928;2023-01-31T15:46:51;100158.66;;;3.73;85.68
19624;BME280;9959;49.798;9.928;2023-01-31T15:49:26;100149.28;;;3.69;86.06
19624;BME280;9959;49.798;9.928;2023-01-31T15:52:14;100161.63;;;3.70;86.83
19624;BME280;9959;49.798;9.928;2023-01-31T15:54:56;100169.75;;;3.69;87.83
19624;BME280;9959;49.798;9.928;2023-01-31T15:57:26;100167.56;;;3.64;87.68
19624;BME280;9959;49.798;9.928;2023-01-31T15:59:54;100169.91;;;3.67;87.81
19624;BME280;9959;49.798;9.928;2023-01-31T16:02:26;100166.19;;;3.60;88.14
19624;BME280;9959;49.798;9.928;2023-01-31T16:04:55;100161.53;;;3.62;88.25
19624;BME280;9959;49.798;9.928;2023-01-31T16:07:25;100169.91;;;3.67;88.69
19624;BME280;9959;49.798;9.928;2023-01-31T16:09:58;100175.84;;;3.61;88.18
19624;BME280;9959;49.798;9.928;2023-01-31T16:12:29;100161.16;;;3.57;88.50
19624;BME280;9959;49.798;9.928;2023-01-31T16:15:02;100168.56;;;3.63;88.52
19624;BME280;9959;49.798;9.928;2023-01-31T16:17:29;100164.47;;;3.51;89.12